createdAt,value
2022-08-07T00:00:18.749Z,100779.81
2022-08-07T00:02:47.856Z,100788.16
2022-08-07T00:05:15.317Z,100776.59
2022-08-07T00:07:42.476Z,100778.59
2022-08-07T00:10:25.991Z,100784.19
2022-08-07T00:12:59.816Z,100778.22
2022-08-07T00:15:38.343Z,100775.84
2022-08-07T00:18:19.686Z,100772.66
2022-08-07T00:20:49.603Z,100771.06
2022-08-07T00:23:17.838Z,100761.91
2022-08-07T00:25:52.444Z,100763.47
2022-08-07T00:28:33.764Z,100765.47
2022-08-07T00:31:06.415Z,100761.47
2022-08-07T00:33:41.290Z,100761.09
2022-08-07T00:36:09.744Z,100755.53
2022-08-07T00:38:39.025Z,100755.13
2022-08-07T00:41:10.070Z,100755.53
2022-08-07T00:44:00.916Z,100747.16
2022-08-07T00:46:30.977Z,100757.94
2022-08-07T00:49:03.297Z,100755.16
2022-08-07T00:51:57.503Z,100747.16
2022-08-07T00:54:19.955Z,100749.97
2022-08-07T00:56:49.750Z,100746.00
2022-08-07T00:59:32.323Z,100745.22
2022-08-07T01:02:03.060Z,100741.22
2022-08-07T01:04:37.458Z,100742.78
2022-08-07T01:07:11.133Z,100732.06
2022-08-07T01:10:06.398Z,100731.66
2022-08-07T01:12:29.766Z,100730.84
2022-08-07T01:15:01.772Z,100738.00
2022-08-07T01:17:33.427Z,100730.44
2022-08-07T01:20:16.638Z,100721.72
2022-08-07T01:22:47.081Z,100722.50
2022-08-07T01:25:54.230Z,100722.13
2022-08-07T01:28:17.274Z,100721.75
2022-08-07T01:30:51.364Z,100724.91
2022-08-07T01:33:22.498Z,100716.19
2022-08-07T01:35:54.316Z,100712.97
2022-08-07T01:38:36.254Z,100718.56
2022-08-07T01:41:13.807Z,100720.97
2022-08-07T01:43:55.335Z,100717.75
2022-08-07T01:46:22.727Z,100714.53
2022-08-07T01:48:51.011Z,100711.38
2022-08-07T01:52:01.560Z,100714.56
2022-08-07T01:54:33.111Z,100713.41
2022-08-07T01:57:24.353Z,100717.75
2022-08-07T02:00:13.058Z,100712.97
2022-08-07T02:03:18.524Z,100711.38
2022-08-07T02:05:59.378Z,100707.41
2022-08-07T02:08:29.694Z,100709.00
2022-08-07T02:10:59.775Z,100708.59
2022-08-07T02:13:58.193Z,100708.25
2022-08-07T02:16:28.569Z,100701.91
2022-08-07T02:20:06.624Z,100699.50
2022-08-07T02:21:58.570Z,100708.28
2022-08-07T02:24:29.297Z,100702.72
2022-08-07T02:27:01.188Z,100708.28
2022-08-07T02:29:34.385Z,100703.53
2022-08-07T02:32:05.747Z,100696.75
2022-08-07T02:34:51.110Z,100703.50
2022-08-07T02:37:21.139Z,100696.31
2022-08-07T02:40:02.008Z,100700.28
2022-08-07T02:42:38.866Z,100693.56
2022-08-07T02:45:20.670Z,100698.72
2022-08-07T02:47:59.842Z,100690.38
2022-08-07T02:50:37.003Z,100695.56
2022-08-07T02:53:10.882Z,100691.59
2022-08-07T02:56:02.451Z,100692.00
2022-08-07T02:58:35.200Z,100691.22
2022-08-07T03:01:06.299Z,100694.84
2022-08-07T03:03:49.683Z,100684.50
2022-08-07T03:06:26.104Z,100690.06
2022-08-07T03:09:02.658Z,100690.88
2022-08-07T03:11:32.967Z,100693.25
2022-08-07T03:14:07.749Z,100690.06
2022-08-07T03:16:36.231Z,100686.91
2022-08-07T03:19:08.374Z,100692.47
2022-08-07T03:21:37.497Z,100682.94
2022-08-07T03:24:19.990Z,100687.69
2022-08-07T03:26:58.444Z,100676.16
2022-08-07T03:29:37.399Z,100682.91
2022-08-07T03:32:13.146Z,100680.94
2022-08-07T03:35:16.834Z,100681.31
2022-08-07T03:37:54.186Z,100684.50
2022-08-07T03:40:36.086Z,100676.16
2022-08-07T03:43:14.799Z,100682.94
2022-08-07T03:45:49.631Z,100681.31
2022-08-07T03:48:22.138Z,100686.88
2022-08-07T03:50:55.724Z,100690.06
2022-08-07T03:54:00.557Z,100687.66
2022-08-07T03:56:33.619Z,100691.28
2022-08-07T03:59:10.001Z,100692.06
2022-08-07T04:01:46.324Z,100701.22
2022-08-07T04:04:17.978Z,100696.81
2022-08-07T04:06:50.876Z,100700.00
2022-08-07T04:09:23.009Z,100700.41
2022-08-07T04:12:24.441Z,100697.63
2022-08-07T04:14:47.761Z,100706.00
2022-08-07T04:17:21.573Z,100707.97
2022-08-07T04:19:54.852Z,100709.13
2022-08-07T04:22:29.549Z,100708.34
2022-08-07T04:25:02.046Z,100712.34
2022-08-07T04:27:35.916Z,100719.09
2022-08-07T04:30:35.802Z,100719.50
2022-08-07T04:33:15.393Z,100712.34
2022-08-07T04:35:51.116Z,100714.72
2022-08-07T04:38:24.982Z,100722.69
2022-08-07T04:40:56.793Z,100722.28
2022-08-07T04:44:10.325Z,100713.13
2022-08-07T04:46:34.731Z,100715.50
2022-08-07T04:49:24.368Z,100719.50
2022-08-07T04:52:08.400Z,100723.47
2022-08-07T04:54:50.898Z,100722.66
2022-08-07T04:58:12.004Z,100723.38
2022-08-07T05:00:43.179Z,100724.19
2022-08-07T05:04:00.234Z,100727.34
2022-08-07T05:07:19.454Z,100722.53
2022-08-07T05:10:04.848Z,100739.19
2022-08-07T05:12:51.376Z,100731.22
2022-08-07T05:15:27.464Z,100733.47
2022-08-07T05:18:08.549Z,100737.13
2022-08-07T05:20:43.935Z,100737.59
2022-08-07T05:23:16.689Z,100737.56
2022-08-07T05:26:10.549Z,100735.94
2022-08-07T05:28:36.541Z,100741.06
2022-08-07T05:31:14.643Z,100734.59
2022-08-07T05:34:01.292Z,100741.78
2022-08-07T05:36:35.609Z,100738.91
2022-08-07T05:39:09.236Z,100735.16
2022-08-07T05:42:02.238Z,100743.28
2022-08-07T05:44:34.109Z,100743.31
2022-08-07T05:47:18.231Z,100751.06
2022-08-07T05:49:50.864Z,100756.34
2022-08-07T05:52:32.405Z,100749.06
2022-08-07T05:56:01.992Z,100748.09
2022-08-07T05:58:16.720Z,100749.94
2022-08-07T06:00:50.916Z,100748.50
2022-08-07T06:03:20.456Z,100758.66
2022-08-07T06:05:56.398Z,100755.28
2022-08-07T06:08:30.316Z,100762.31
2022-08-07T06:11:03.819Z,100762.03
2022-08-07T06:14:11.417Z,100760.47
2022-08-07T06:16:22.963Z,100766.91
2022-08-07T06:18:57.043Z,100765.97
2022-08-07T06:22:16.781Z,100766.47
2022-08-07T06:24:38.566Z,100760.00
2022-08-07T06:27:59.891Z,100764.34
2022-08-07T06:30:32.440Z,100772.19
2022-08-07T06:33:01.418Z,100761.69
2022-08-07T06:35:30.648Z,100771.00
2022-08-07T06:38:20.262Z,100778.81
2022-08-07T06:40:52.995Z,100777.13
2022-08-07T06:43:25.174Z,100772.75
2022-08-07T06:46:15.670Z,100783.59
2022-08-07T06:48:58.714Z,100776.94
2022-08-07T06:51:33.888Z,100776.69
2022-08-07T06:55:30.317Z,100783.59
2022-08-07T06:56:56.349Z,100787.03
2022-08-07T07:00:13.437Z,100784.63
2022-08-07T07:02:54.613Z,100787.63
2022-08-07T07:06:05.763Z,100792.31
2022-08-07T07:08:06.921Z,100789.19
2022-08-07T07:10:37.170Z,100792.41
2022-08-07T07:13:14.882Z,100784.47
2022-08-07T07:18:50.490Z,100790.75
2022-08-07T07:22:05.373Z,100785.03
2022-08-07T07:24:17.618Z,100784.72
2022-08-07T07:26:49.650Z,100782.50
2022-08-07T07:29:56.216Z,100778.81
2022-08-07T07:32:14.603Z,100791.25
2022-08-07T07:34:48.636Z,100780.69
2022-08-07T07:37:43.878Z,100789.28
2022-08-07T07:40:10.379Z,100789.00
2022-08-07T07:42:47.146Z,100785.69
2022-08-07T07:45:24.656Z,100789.47
2022-08-07T07:48:13.157Z,100794.03
2022-08-07T07:51:07.940Z,100791.97
2022-08-07T07:53:51.801Z,100794.22
2022-08-07T07:56:30.296Z,100794.28
2022-08-07T07:59:03.058Z,100798.41
2022-08-07T08:02:04.032Z,100788.41
2022-08-07T08:04:28.886Z,100795.72
2022-08-07T08:06:56.532Z,100794.59
2022-08-07T08:09:30.029Z,100793.19
2022-08-07T08:12:02.487Z,100784.88
2022-08-07T08:14:34.151Z,100791.72
2022-08-07T08:17:55.676Z,100793.94
2022-08-07T08:20:17.175Z,100782.75
2022-08-07T08:23:03.557Z,100786.19
2022-08-07T08:25:56.719Z,100787.28
2022-08-07T08:28:38.703Z,100784.03
2022-08-07T08:31:14.594Z,100784.97
2022-08-07T08:33:49.613Z,100790.06
2022-08-07T08:36:25.570Z,100784.69
2022-08-07T08:39:01.884Z,100783.91
2022-08-07T08:41:58.386Z,100790.03
2022-08-07T08:44:44.379Z,100787.16
2022-08-07T08:47:47.341Z,100782.88
2022-08-07T08:50:39.172Z,100780.94
2022-08-07T08:53:33.833Z,100791.44
2022-08-07T08:56:10.874Z,100783.34
2022-08-07T08:59:00.193Z,100778.44
2022-08-07T09:01:58.336Z,100776.97
2022-08-07T09:04:51.266Z,100786.78
2022-08-07T09:07:46.142Z,100778.72
2022-08-07T09:10:29.931Z,100783.94
2022-08-07T09:13:11.049Z,100782.91
2022-08-07T09:16:21.760Z,100778.81
2022-08-07T09:19:53.218Z,100781.34
2022-08-07T09:24:33.017Z,100780.47
2022-08-07T09:25:54.629Z,100783.22
2022-08-07T09:30:05.238Z,100781.13
2022-08-07T09:32:17.259Z,100777.50
2022-08-07T09:36:05.384Z,100778.31
2022-08-07T09:38:31.766Z,100779.56
2022-08-07T09:41:24.373Z,100781.84
2022-08-07T09:44:19.324Z,100777.53
2022-08-07T09:48:00.441Z,100782.09
2022-08-07T09:50:44.088Z,100776.13
2022-08-07T09:53:13.234Z,100779.38
2022-08-07T09:56:03.817Z,100775.44
2022-08-07T09:59:07.758Z,100774.63
2022-08-07T10:02:14.864Z,100769.53
2022-08-07T10:05:00.699Z,100766.47
2022-08-07T10:07:55.063Z,100767.59
2022-08-07T10:11:07.726Z,100768.25
2022-08-07T10:14:02.873Z,100766.63
2022-08-07T10:16:59.564Z,100763.72
2022-08-07T10:19:49.443Z,100763.50
2022-08-07T10:22:36.795Z,100757.59
2022-08-07T10:25:43.136Z,100759.50
2022-08-07T10:28:34.223Z,100756.31
2022-08-07T10:31:35.856Z,100748.91
2022-08-07T10:34:33.888Z,100745.81
2022-08-07T10:37:14.622Z,100743.69
2022-08-07T10:40:12.660Z,100747.56
2022-08-07T10:43:07.607Z,100747.03
2022-08-07T10:45:44.731Z,100731.91
2022-08-07T10:48:36.475Z,100721.16
2022-08-07T10:51:16.867Z,100730.47
2022-08-07T10:54:19.960Z,100726.50
2022-08-07T10:57:16.922Z,100728.00
2022-08-07T11:00:36.154Z,100726.94
2022-08-07T11:03:24.027Z,100724.31
2022-08-07T11:06:42.239Z,100724.34
2022-08-07T11:10:09.964Z,100718.50
2022-08-07T11:12:31.693Z,100723.69
2022-08-07T11:15:09.604Z,100713.00
2022-08-07T11:18:03.698Z,100713.34
2022-08-07T11:20:43.473Z,100707.75
2022-08-07T11:23:48.340Z,100707.41
2022-08-07T11:26:33.992Z,100712.84
2022-08-07T11:29:13.264Z,100698.78
2022-08-07T11:31:58.684Z,100698.44
2022-08-07T11:34:52.591Z,100695.66
2022-08-07T11:37:58.088Z,100698.53
2022-08-07T11:40:53.086Z,100701.88
2022-08-07T11:43:54.535Z,100703.16
2022-08-07T11:50:18.678Z,100695.63
2022-08-07T11:52:57.768Z,100694.97
2022-08-07T11:56:09.081Z,100698.91
2022-08-07T12:00:08.973Z,100696.44
2022-08-07T12:02:37.684Z,100690.25
2022-08-07T12:05:28.251Z,100689.28
2022-08-07T12:08:05.621Z,100693.00
2022-08-07T12:11:08.145Z,100683.00
2022-08-07T12:13:58.433Z,100674.03
2022-08-07T12:16:30.841Z,100678.22
2022-08-07T12:19:14.700Z,100670.78
2022-08-07T12:22:39.608Z,100666.09
2022-08-07T12:26:22.362Z,100664.06
2022-08-07T12:28:44.879Z,100669.13
2022-08-07T12:31:23.514Z,100661.59
2022-08-07T12:33:56.147Z,100660.97
2022-08-07T12:36:33.497Z,100667.03
2022-08-07T12:39:09.390Z,100661.59
2022-08-07T12:41:59.811Z,100659.16
2022-08-07T12:44:30.619Z,100654.91
2022-08-07T12:47:06.506Z,100653.72
2022-08-07T12:49:51.422Z,100646.81
2022-08-07T12:52:47.914Z,100646.66
2022-08-07T12:55:41.442Z,100641.88
2022-08-07T12:58:22.149Z,100648.41
2022-08-07T13:01:23.166Z,100644.56
2022-08-07T13:04:36.937Z,100637.50
2022-08-07T13:08:12.512Z,100635.41
2022-08-07T13:10:43.837Z,100625.41
2022-08-07T13:14:03.568Z,100620.09
2022-08-07T13:16:41.281Z,100618.63
2022-08-07T13:19:11.412Z,100615.09
2022-08-07T13:22:34.793Z,100625.50
2022-08-07T13:25:09.480Z,100625.59
2022-08-07T13:28:12.514Z,100623.31
2022-08-07T13:30:52.172Z,100625.22
2022-08-07T13:34:34.583Z,100625.06
2022-08-07T13:36:47.954Z,100622.72
2022-08-07T13:40:33.320Z,100624.94
2022-08-07T13:42:25.065Z,100611.84
2022-08-07T13:45:40.592Z,100615.16
2022-08-07T13:48:06.286Z,100613.69
2022-08-07T13:50:44.455Z,100617.03
2022-08-07T13:53:24.014Z,100614.50
2022-08-07T13:55:54.644Z,100620.47
2022-08-07T13:58:56.374Z,100624.47
2022-08-07T14:01:26.617Z,100625.22
2022-08-07T14:04:07.174Z,100622.78
2022-08-07T14:06:43.693Z,100632.50
2022-08-07T14:10:03.102Z,100635.13
2022-08-07T14:12:29.964Z,100640.66
2022-08-07T14:15:10.156Z,100635.19
2022-08-07T14:18:23.567Z,100636.69
2022-08-07T14:20:43.775Z,100637.56
2022-08-07T14:23:31.639Z,100634.34
2022-08-07T14:26:28.142Z,100614.91
2022-08-07T14:29:02.022Z,100624.56
2022-08-07T14:31:43.459Z,100631.06
2022-08-07T14:34:29.517Z,100630.88
2022-08-07T14:37:02.029Z,100617.50
2022-08-07T14:40:16.664Z,100616.78
2022-08-07T14:45:21.795Z,100601.78
2022-08-07T14:47:52.923Z,100605.59
2022-08-07T14:50:28.159Z,100609.78
2022-08-07T14:53:07.489Z,100620.56
2022-08-07T14:55:39.323Z,100612.88
2022-08-07T14:58:30.025Z,100604.38
2022-08-07T15:00:59.491Z,100607.41
2022-08-07T15:03:51.411Z,100615.59
2022-08-07T15:06:25.792Z,100605.34
2022-08-07T15:08:56.010Z,100605.84
2022-08-07T15:11:53.227Z,100593.22
2022-08-07T15:14:25.438Z,100593.31
2022-08-07T15:20:31.053Z,100580.41
2022-08-07T15:22:51.571Z,100579.75
2022-08-07T15:25:36.522Z,100581.91
2022-08-07T15:28:34.199Z,100577.25
2022-08-07T15:31:05.256Z,100571.28
2022-08-07T15:33:35.978Z,100567.25
2022-08-07T15:36:07.890Z,100577.41
2022-08-07T15:38:58.684Z,100572.06
2022-08-07T15:42:46.784Z,100570.84
2022-08-07T15:44:21.320Z,100570.97
2022-08-07T15:52:51.761Z,100577.25
2022-08-07T15:55:23.188Z,100580.47
2022-08-07T15:57:53.574Z,100575.16
2022-08-07T16:00:34.762Z,100598.78
2022-08-07T16:03:21.361Z,100593.84
2022-08-07T16:05:52.932Z,100598.94
2022-08-07T16:08:31.422Z,100608.47
2022-08-07T16:11:27.204Z,100607.41
2022-08-07T16:14:03.162Z,100611.03
2022-08-07T16:16:47.924Z,100622.06
2022-08-07T16:19:42.136Z,100626.63
2022-08-07T16:22:30.177Z,100628.09
2022-08-07T16:25:22.742Z,100627.06
2022-08-07T16:30:05.490Z,100613.44
2022-08-07T16:32:03.819Z,100619.88
2022-08-07T16:34:48.443Z,100616.00
2022-08-07T16:38:06.318Z,100616.47
2022-08-07T16:40:32.194Z,100618.41
2022-08-07T16:44:06.157Z,100616.00
2022-08-07T16:47:04.852Z,100622.44
2022-08-07T16:50:27.839Z,100620.50
2022-08-07T16:52:57.593Z,100632.91
2022-08-07T16:55:51.126Z,100633.16
2022-08-07T16:59:02.287Z,100636.81
2022-08-07T17:01:41.222Z,100628.56
2022-08-07T17:04:58.083Z,100636.69
2022-08-07T17:07:55.398Z,100641.84
2022-08-07T17:10:54.396Z,100641.00
2022-08-07T17:13:41.577Z,100643.41
2022-08-07T17:16:39.900Z,100648.00
2022-08-07T17:20:01.095Z,100661.31
2022-08-07T17:22:37.971Z,100664.63
2022-08-07T17:25:47.664Z,100667.13
2022-08-07T17:28:20.202Z,100670.38
2022-08-07T17:31:16.137Z,100661.97
2022-08-07T17:34:15.341Z,100663.22
2022-08-07T17:37:00.024Z,100671.94
2022-08-07T17:40:03.106Z,100673.56
2022-08-07T17:42:59.342Z,100677.09
2022-08-07T17:45:34.886Z,100680.25
2022-08-07T17:48:08.668Z,100676.56
2022-08-07T17:50:58.363Z,100675.34
2022-08-07T17:54:00.520Z,100677.28
2022-08-07T17:56:35.080Z,100681.25
2022-08-07T17:59:16.968Z,100683.56
2022-08-07T18:01:56.755Z,100676.38
2022-08-07T18:04:49.348Z,100674.25
2022-08-07T18:07:43.669Z,100686.94
2022-08-07T18:10:29.027Z,100677.31
2022-08-07T18:13:11.099Z,100675.72
2022-08-07T18:15:58.817Z,100684.13
2022-08-07T18:21:03.976Z,100679.72
2022-08-07T18:22:00.393Z,100674.56
2022-08-07T18:24:53.517Z,100679.72
2022-08-07T18:27:39.340Z,100689.34
2022-08-07T18:30:31.502Z,100686.13
2022-08-07T18:33:29.435Z,100679.25
2022-08-07T18:36:32.821Z,100686.94
2022-08-07T18:40:08.172Z,100688.28
2022-08-07T18:42:27.536Z,100690.84
2022-08-07T18:45:43.813Z,100696.56
2022-08-07T18:50:04.739Z,100694.66
2022-08-07T18:51:14.886Z,100700.69
2022-08-07T18:54:30.538Z,100689.94
2022-08-07T18:57:40.095Z,100691.16
2022-08-07T19:00:33.342Z,100697.16
2022-08-07T19:03:17.419Z,100707.63
2022-08-07T19:06:03.251Z,100703.28
2022-08-07T19:08:58.884Z,100716.06
2022-08-07T19:12:04.042Z,100720.06
2022-08-07T19:15:03.180Z,100720.13
2022-08-07T19:18:05.242Z,100718.94
2022-08-07T19:21:08.931Z,100728.03
2022-08-07T19:23:57.900Z,100731.59
2022-08-07T19:27:09.240Z,100734.41
2022-08-07T19:31:00.764Z,100737.97
2022-08-07T19:32:26.442Z,100749.22
2022-08-07T19:35:01.676Z,100755.63
2022-08-07T19:37:55.672Z,100756.50
2022-08-07T19:40:31.505Z,100759.31
2022-08-07T19:43:10.744Z,100763.75
2022-08-07T19:46:07.498Z,100764.16
2022-08-07T19:48:53.545Z,100760.97
2022-08-07T19:51:52.902Z,100769.72
2022-08-07T19:54:34.189Z,100778.09
2022-08-07T19:58:03.121Z,100778.09
2022-08-07T20:00:01.961Z,100773.72
2022-08-07T20:02:51.920Z,100787.25
2022-08-07T20:05:27.901Z,100779.59
2022-08-07T20:08:02.407Z,100775.59
2022-08-07T20:10:55.440Z,100779.13
2022-08-07T20:13:31.957Z,100775.94
2022-08-07T20:16:03.123Z,100769.47
2022-08-07T20:18:34.647Z,100769.81
2022-08-07T20:21:21.023Z,100766.56
2022-08-07T20:23:57.915Z,100760.53
2022-08-07T20:26:45.283Z,100756.91
2022-08-07T20:29:48.374Z,100752.97
2022-08-07T20:32:22.259Z,100763.78
2022-08-07T20:34:54.902Z,100756.22
2022-08-07T20:37:25.640Z,100744.69
2022-08-07T20:40:03.769Z,100748.75
2022-08-07T20:42:35.220Z,100740.03
2022-08-07T20:45:32.874Z,100752.84
2022-08-07T20:47:57.784Z,100744.09
2022-08-07T20:50:30.517Z,100743.34
2022-08-07T20:52:58.763Z,100743.34
2022-08-07T20:55:26.503Z,100743.41
2022-08-07T20:58:03.482Z,100743.84
2022-08-07T21:00:42.980Z,100744.28
2022-08-07T21:03:16.402Z,100746.72
2022-08-07T21:05:54.501Z,100753.13
2022-08-07T21:08:36.968Z,100751.94
2022-08-07T21:11:11.771Z,100747.97
2022-08-07T21:14:16.269Z,100742.38
2022-08-07T21:17:06.856Z,100745.63
2022-08-07T21:19:51.837Z,100750.78
2022-08-07T21:22:34.791Z,100752.78
2022-08-07T21:25:23.371Z,100756.00
2022-08-07T21:28:16.779Z,100748.81
2022-08-07T21:31:49.264Z,100751.56
2022-08-07T21:34:26.658Z,100749.16
2022-08-07T21:37:04.060Z,100748.38
2022-08-07T21:39:48.600Z,100750.38
2022-08-07T21:42:48.649Z,100753.25
2022-08-07T21:46:09.179Z,100753.31
2022-08-07T21:48:43.803Z,100753.34
2022-08-07T21:51:32.221Z,100760.97
2022-08-07T21:54:10.078Z,100757.00
2022-08-07T21:57:00.267Z,100757.03
2022-08-07T22:00:02.616Z,100751.88
2022-08-07T22:02:41.654Z,100754.28
2022-08-07T22:05:43.844Z,100760.66
2022-08-07T22:08:06.048Z,100762.66
2022-08-07T22:10:42.276Z,100769.44
2022-08-07T22:13:14.481Z,100783.00
2022-08-07T22:16:45.110Z,100792.19
2022-08-07T22:18:58.816Z,100787.94
2022-08-07T22:22:04.560Z,100787.50
2022-08-07T22:24:43.570Z,100797.13
2022-08-07T22:27:21.158Z,100785.22
2022-08-07T22:30:12.404Z,100789.63
2022-08-07T22:33:02.881Z,100785.25
2022-08-07T22:35:42.835Z,100791.66
2022-08-07T22:38:37.925Z,100788.13
2022-08-07T22:42:04.175Z,100786.53
2022-08-07T22:44:25.176Z,100788.94
2022-08-07T22:47:16.722Z,100784.59
2022-08-07T22:50:03.434Z,100781.03
2022-08-07T22:52:59.037Z,100782.28
2022-08-07T22:56:04.447Z,100794.28
2022-08-07T22:59:18.419Z,100785.13
2022-08-07T23:02:16.541Z,100785.19
2022-08-07T23:06:10.153Z,100783.56
2022-08-07T23:08:24.240Z,100772.06
2022-08-07T23:11:13.002Z,100772.09
2022-08-07T23:14:16.434Z,100770.94
2022-08-07T23:16:58.934Z,100770.63
2022-08-07T23:20:07.648Z,100775.00
2022-08-07T23:22:53.640Z,100763.44
2022-08-07T23:25:28.287Z,100765.09
2022-08-07T23:28:21.192Z,100766.72
2022-08-07T23:31:11.284Z,100764.34
2022-08-07T23:34:36.301Z,100769.97
2022-08-07T23:36:54.824Z,100762.81
2022-08-07T23:39:55.377Z,100767.59
2022-08-07T23:42:40.899Z,100760.41
2022-08-07T23:45:33.466Z,100758.81
2022-08-07T23:48:21.582Z,100762.81
2022-08-07T23:51:03.746Z,100753.66
2022-08-07T23:53:53.684Z,100757.63
2022-08-07T23:56:34.934Z,100759.63
